createdAt,value
2023-03-17T00:00:10.515Z,2.72
2023-03-17T00:01:14.948Z,2.65
2023-03-17T00:02:18.828Z,2.59
2023-03-17T00:03:23.783Z,2.53
2023-03-17T00:04:28.205Z,2.52
2023-03-17T00:05:33.641Z,2.59
2023-03-17T00:06:38.118Z,2.66
2023-03-17T00:07:41.687Z,2.81
2023-03-17T00:08:46.646Z,2.83
2023-03-17T00:09:49.674Z,2.85
2023-03-17T00:10:52.804Z,2.73
2023-03-17T00:11:55.983Z,2.73
2023-03-17T00:12:59.051Z,2.67
2023-03-17T00:14:02.169Z,2.66
2023-03-17T00:15:05.778Z,2.86
2023-03-17T00:16:17.394Z,2.80
2023-03-17T00:17:20.198Z,2.71
2023-03-17T00:18:23.825Z,2.92
2023-03-17T00:19:36.045Z,2.82
2023-03-17T00:20:39.668Z,2.92
2023-03-17T00:21:42.832Z,2.92
2023-03-17T00:22:46.459Z,2.87
2023-03-17T00:23:52.132Z,2.86
2023-03-17T00:24:55.478Z,2.96
2023-03-17T00:25:59.037Z,2.84
2023-03-17T00:27:02.594Z,2.91
2023-03-17T00:28:14.211Z,2.82
2023-03-17T00:29:17.124Z,2.76
2023-03-17T00:30:21.569Z,2.68
2023-03-17T00:31:27.582Z,2.63
2023-03-17T00:32:30.815Z,2.65
2023-03-17T00:33:34.923Z,2.62
2023-03-17T00:34:38.158Z,2.67
2023-03-17T00:35:41.246Z,2.70
2023-03-17T00:36:47.616Z,2.68
2023-03-17T00:37:53.946Z,2.70
2023-03-17T00:38:57.579Z,2.57
2023-03-17T00:40:00.936Z,2.49
2023-03-17T00:41:04.826Z,2.49
2023-03-17T00:42:08.095Z,2.47
2023-03-17T00:43:11.775Z,2.62
2023-03-17T00:44:14.785Z,2.65
2023-03-17T00:45:18.634Z,2.63
2023-03-17T00:46:36.145Z,2.57
2023-03-17T00:47:40.712Z,2.66
2023-03-17T00:48:45.657Z,2.72
2023-03-17T00:49:48.949Z,2.69
2023-03-17T00:50:52.228Z,2.60
2023-03-17T00:51:55.370Z,2.60
2023-03-17T00:52:58.599Z,2.59
2023-03-17T00:54:01.948Z,2.72
2023-03-17T00:55:06.665Z,2.78
2023-03-17T00:56:19.419Z,2.68
2023-03-17T00:57:23.092Z,2.54
2023-03-17T00:58:29.420Z,2.51
2023-03-17T00:59:41.910Z,2.46
2023-03-17T01:00:45.991Z,2.52
2023-03-17T01:01:49.607Z,2.46
2023-03-17T01:02:55.119Z,2.35
2023-03-17T01:03:58.624Z,2.27
2023-03-17T01:05:06.336Z,2.25
2023-03-17T01:06:13.430Z,2.16
2023-03-17T01:07:17.945Z,2.16
2023-03-17T01:08:22.984Z,2.10
2023-03-17T01:09:27.642Z,2.10
2023-03-17T01:10:31.631Z,1.99
2023-03-17T01:11:35.295Z,1.91
2023-03-17T01:12:38.546Z,1.89
2023-03-17T01:13:41.964Z,1.80
2023-03-17T01:14:45.309Z,1.77
2023-03-17T01:15:50.762Z,1.78
2023-03-17T01:16:55.416Z,1.74
2023-03-17T01:18:00.228Z,1.66
2023-03-17T01:19:03.471Z,1.61
2023-03-17T01:20:07.708Z,1.58
2023-03-17T01:21:10.978Z,1.51
2023-03-17T01:22:14.551Z,1.46
2023-03-17T01:23:18.189Z,1.45
2023-03-17T01:24:21.371Z,1.44
2023-03-17T01:25:24.659Z,1.44
2023-03-17T01:26:28.107Z,1.44
2023-03-17T01:27:36.288Z,1.36
2023-03-17T01:28:39.598Z,1.30
2023-03-17T01:29:43.305Z,1.30
2023-03-17T01:30:47.333Z,1.23
2023-03-17T01:31:50.313Z,1.19
2023-03-17T01:32:53.797Z,1.13
2023-03-17T01:33:57.165Z,1.05
2023-03-17T01:35:00.252Z,1.01
2023-03-17T01:36:03.344Z,0.99
2023-03-17T01:37:07.246Z,0.95
2023-03-17T01:38:10.617Z,0.91
2023-03-17T01:39:13.655Z,0.91
2023-03-17T01:40:22.456Z,0.96
2023-03-17T01:41:25.482Z,0.85
2023-03-17T01:42:29.418Z,0.87
2023-03-17T01:43:32.692Z,0.86
2023-03-17T01:44:35.710Z,0.83
2023-03-17T01:46:16.737Z,0.74
2023-03-17T01:47:20.059Z,0.74
2023-03-17T01:48:24.030Z,0.67
2023-03-17T01:49:37.748Z,0.60
2023-03-17T01:50:42.803Z,0.58
2023-03-17T01:51:48.529Z,0.69
2023-03-17T01:52:52.002Z,0.74
2023-03-17T01:53:55.849Z,0.78
2023-03-17T01:55:02.463Z,0.71
2023-03-17T01:56:06.426Z,0.68
2023-03-17T01:57:16.424Z,0.63
2023-03-17T01:58:23.276Z,0.69
2023-03-17T01:59:31.916Z,0.67
2023-03-17T02:00:35.182Z,0.66
2023-03-17T02:01:44.626Z,0.71
2023-03-17T02:02:51.207Z,0.67
2023-03-17T02:03:55.709Z,0.67
2023-03-17T02:04:59.886Z,0.67
2023-03-17T02:06:05.423Z,0.68
2023-03-17T02:07:10.447Z,0.74
2023-03-17T02:08:16.728Z,0.90
2023-03-17T02:09:19.944Z,0.86
2023-03-17T02:10:25.621Z,0.83
2023-03-17T02:11:29.441Z,0.89
2023-03-17T02:12:35.916Z,0.87
2023-03-17T02:13:39.214Z,0.84
2023-03-17T02:14:42.190Z,0.89
2023-03-17T02:15:48.748Z,0.90
2023-03-17T02:16:51.997Z,0.87
2023-03-17T02:17:55.690Z,0.85
2023-03-17T02:18:58.894Z,0.85
2023-03-17T02:20:33.724Z,0.85
2023-03-17T02:21:50.298Z,0.90
2023-03-17T02:22:55.881Z,0.84
2023-03-17T02:24:03.704Z,0.81
2023-03-17T02:25:07.996Z,0.84
2023-03-17T02:26:12.135Z,0.83
2023-03-17T02:27:20.295Z,0.81
2023-03-17T02:28:31.353Z,0.73
2023-03-17T02:29:36.220Z,0.72
2023-03-17T02:30:39.356Z,0.81
2023-03-17T02:31:44.065Z,0.78
2023-03-17T02:32:47.705Z,0.73
2023-03-17T02:33:50.911Z,0.77
2023-03-17T02:34:54.171Z,0.70
2023-03-17T02:35:57.765Z,0.67
2023-03-17T02:37:00.931Z,0.71
2023-03-17T02:38:03.899Z,0.69
2023-03-17T02:39:08.230Z,0.69
2023-03-17T02:40:11.869Z,0.64
2023-03-17T02:41:15.010Z,0.57
2023-03-17T02:42:18.105Z,0.63
2023-03-17T02:43:21.215Z,0.57
2023-03-17T02:44:25.111Z,0.61
2023-03-17T02:45:28.454Z,0.60
2023-03-17T02:46:32.417Z,0.54
2023-03-17T02:47:36.508Z,0.50
2023-03-17T02:48:40.805Z,0.44
2023-03-17T02:49:44.474Z,0.44
2023-03-17T02:50:47.450Z,0.47
2023-03-17T02:51:51.054Z,0.46
2023-03-17T02:52:54.229Z,0.47
2023-03-17T02:53:57.201Z,0.39
2023-03-17T02:55:00.210Z,0.33
2023-03-17T02:56:03.215Z,0.41
2023-03-17T02:57:07.960Z,0.40
2023-03-17T02:58:11.442Z,0.40
2023-03-17T02:59:14.723Z,0.33
2023-03-17T03:00:19.852Z,0.33
2023-03-17T03:01:23.342Z,0.34
2023-03-17T03:02:26.631Z,0.30
2023-03-17T03:03:29.853Z,0.26
2023-03-17T03:04:33.044Z,0.18
2023-03-17T03:05:36.234Z,0.17
2023-03-17T03:06:40.137Z,0.15
2023-03-17T03:07:43.708Z,0.12
2023-03-17T03:08:47.160Z,0.11
2023-03-17T03:09:50.194Z,0.10
2023-03-17T03:10:53.481Z,0.05
2023-03-17T03:11:57.095Z,0.01
2023-03-17T03:13:00.043Z,-0.01
2023-03-17T03:14:03.840Z,0.05
2023-03-17T03:15:07.606Z,0.00
2023-03-17T03:16:10.844Z,0.00
2023-03-17T03:17:14.064Z,-0.10
2023-03-17T03:18:17.080Z,-0.09
2023-03-17T03:19:20.816Z,-0.09
2023-03-17T03:20:24.449Z,-0.15
2023-03-17T03:21:28.588Z,-0.18
2023-03-17T03:22:31.646Z,-0.19
2023-03-17T03:23:35.003Z,-0.19
2023-03-17T03:24:38.461Z,-0.20
2023-03-17T03:25:42.091Z,-0.05
2023-03-17T03:26:45.620Z,0.01
2023-03-17T03:27:48.603Z,0.06
2023-03-17T03:28:51.522Z,-0.07
2023-03-17T03:29:54.636Z,-0.10
2023-03-17T03:30:57.650Z,-0.15
2023-03-17T03:32:01.038Z,-0.21
2023-03-17T03:33:04.237Z,-0.22
2023-03-17T03:34:07.587Z,-0.16
2023-03-17T03:35:11.012Z,-0.07
2023-03-17T03:36:14.018Z,-0.04
2023-03-17T03:37:17.072Z,0.00
2023-03-17T03:38:20.342Z,-0.03
2023-03-17T03:39:23.330Z,-0.06
2023-03-17T03:40:27.377Z,-0.09
2023-03-17T03:41:30.414Z,-0.09
2023-03-17T03:42:33.825Z,-0.05
2023-03-17T03:43:37.168Z,-0.02
2023-03-17T03:44:40.168Z,0.06
2023-03-17T03:45:43.089Z,0.05
2023-03-17T03:46:46.150Z,0.05
2023-03-17T03:47:49.218Z,0.05
2023-03-17T03:48:52.716Z,0.09
2023-03-17T03:49:55.800Z,0.01
2023-03-17T03:51:00.747Z,0.08
2023-03-17T03:52:03.760Z,0.09
2023-03-17T03:53:07.539Z,0.10
2023-03-17T03:54:10.607Z,0.05
2023-03-17T03:55:13.955Z,0.00
2023-03-17T03:56:17.359Z,-0.04
2023-03-17T03:57:20.378Z,0.09
2023-03-17T03:58:23.516Z,0.12
2023-03-17T03:59:26.794Z,0.21
2023-03-17T04:00:30.902Z,0.36
2023-03-17T04:01:34.012Z,0.38
2023-03-17T04:02:37.294Z,0.38
2023-03-17T04:03:40.485Z,0.38
2023-03-17T04:04:44.106Z,0.41
2023-03-17T04:05:47.585Z,0.48
2023-03-17T04:06:50.607Z,0.46
2023-03-17T04:07:54.007Z,0.48
2023-03-17T04:08:58.291Z,0.42
2023-03-17T04:10:01.472Z,0.39
2023-03-17T04:11:04.521Z,0.40
2023-03-17T04:12:08.545Z,0.44
2023-03-17T04:13:11.543Z,0.38
2023-03-17T04:14:14.604Z,0.36
2023-03-17T04:15:19.912Z,0.35
2023-03-17T04:16:23.121Z,0.32
2023-03-17T04:17:26.016Z,0.39
2023-03-17T04:18:29.121Z,0.37
2023-03-17T04:19:32.654Z,0.38
2023-03-17T04:20:35.731Z,0.35
2023-03-17T04:21:38.792Z,0.36
2023-03-17T04:22:42.736Z,0.34
2023-03-17T04:23:46.301Z,0.39
2023-03-17T04:24:49.268Z,0.38
2023-03-17T04:25:53.397Z,0.37
2023-03-17T04:26:57.176Z,0.32
2023-03-17T04:28:00.277Z,0.35
2023-03-17T04:29:04.059Z,0.31
2023-03-17T04:30:07.412Z,0.32
2023-03-17T04:31:12.681Z,0.29
2023-03-17T04:32:16.019Z,0.26
2023-03-17T04:33:20.541Z,0.31
2023-03-17T04:34:23.556Z,0.34
2023-03-17T04:35:27.452Z,0.35
2023-03-17T04:36:30.393Z,0.29
2023-03-17T04:37:34.658Z,0.23
2023-03-17T04:38:37.759Z,0.18
2023-03-17T04:39:40.800Z,0.14
2023-03-17T04:40:43.969Z,0.11
2023-03-17T04:41:47.525Z,0.09
2023-03-17T04:42:50.476Z,0.13
2023-03-17T04:43:53.333Z,0.12
2023-03-17T04:44:56.296Z,0.01
2023-03-17T04:45:59.482Z,-0.06
2023-03-17T04:47:02.773Z,-0.06
2023-03-17T04:48:06.223Z,-0.04
2023-03-17T04:49:09.794Z,-0.03
2023-03-17T04:50:13.660Z,-0.10
2023-03-17T04:51:17.393Z,0.02
2023-03-17T04:52:20.487Z,-0.04
2023-03-17T04:53:23.557Z,-0.11
2023-03-17T04:54:26.487Z,-0.04
2023-03-17T04:55:29.492Z,-0.09
2023-03-17T04:56:32.624Z,-0.10
2023-03-17T04:57:37.096Z,-0.09
2023-03-17T04:58:40.026Z,-0.14
2023-03-17T04:59:42.887Z,-0.19
2023-03-17T05:00:46.169Z,-0.18
2023-03-17T05:01:49.273Z,-0.17
2023-03-17T05:02:52.140Z,-0.24
2023-03-17T05:03:55.241Z,-0.19
2023-03-17T05:04:58.209Z,-0.09
2023-03-17T05:06:02.682Z,-0.11
2023-03-17T05:07:05.948Z,-0.10
2023-03-17T05:08:08.925Z,-0.08
2023-03-17T05:09:12.494Z,-0.02
2023-03-17T05:10:15.570Z,0.00
2023-03-17T05:11:19.321Z,0.01
2023-03-17T05:12:22.059Z,0.07
2023-03-17T05:13:26.562Z,-0.04
2023-03-17T05:14:29.515Z,-0.08
2023-03-17T05:15:32.620Z,-0.08
2023-03-17T05:16:35.755Z,-0.02
2023-03-17T05:17:38.632Z,-0.01
2023-03-17T05:18:42.269Z,-0.04
2023-03-17T05:19:45.603Z,-0.09
2023-03-17T05:20:48.724Z,-0.11
2023-03-17T05:21:52.586Z,-0.11
2023-03-17T05:22:55.338Z,-0.02
2023-03-17T05:23:58.172Z,0.13
2023-03-17T05:25:01.027Z,0.20
2023-03-17T05:26:04.236Z,0.17
2023-03-17T05:27:07.362Z,0.14
2023-03-17T05:28:10.485Z,0.10
2023-03-17T05:29:13.307Z,0.09
2023-03-17T05:30:17.217Z,0.08
2023-03-17T05:31:20.256Z,0.15
2023-03-17T05:32:24.232Z,0.24
2023-03-17T05:33:27.818Z,0.18
2023-03-17T05:34:31.361Z,0.19
2023-03-17T05:35:34.219Z,0.20
2023-03-17T05:36:38.030Z,0.17
2023-03-17T05:37:41.153Z,0.17
2023-03-17T05:38:44.775Z,0.21
2023-03-17T05:39:47.678Z,0.32
2023-03-17T05:40:51.829Z,0.35
2023-03-17T05:41:54.899Z,0.35
2023-03-17T05:42:57.746Z,0.32
2023-03-17T05:44:01.171Z,0.39
2023-03-17T05:45:05.443Z,0.37
2023-03-17T05:46:08.678Z,0.34
2023-03-17T05:47:11.710Z,0.35
2023-03-17T05:48:14.660Z,0.38
2023-03-17T05:49:18.927Z,0.42
2023-03-17T05:50:21.904Z,0.45
2023-03-17T05:51:24.946Z,0.54
2023-03-17T05:52:29.299Z,0.60
2023-03-17T05:53:32.392Z,0.64
2023-03-17T05:54:35.550Z,0.65
2023-03-17T05:55:38.609Z,0.65
2023-03-17T05:56:43.249Z,0.68
2023-03-17T05:57:46.397Z,0.74
2023-03-17T05:58:49.720Z,0.74
2023-03-17T05:59:53.077Z,0.79
2023-03-17T06:00:59.285Z,0.83
2023-03-17T06:02:02.675Z,0.85
2023-03-17T06:03:06.017Z,0.92
2023-03-17T06:04:09.438Z,0.95
2023-03-17T06:05:13.560Z,0.96
2023-03-17T06:06:16.597Z,1.02
2023-03-17T06:07:19.492Z,1.08
2023-03-17T06:08:22.390Z,1.13
2023-03-17T06:09:25.789Z,1.11
2023-03-17T06:10:29.476Z,1.28
2023-03-17T06:11:32.481Z,1.45
2023-03-17T06:12:35.376Z,1.61
2023-03-17T06:13:38.324Z,1.60
2023-03-17T06:14:41.206Z,1.78
2023-03-17T06:15:44.560Z,1.82
2023-03-17T06:16:47.514Z,1.81
2023-03-17T06:17:50.538Z,1.94
2023-03-17T06:18:53.463Z,1.95
2023-03-17T06:19:56.576Z,2.01
2023-03-17T06:20:59.796Z,2.00
2023-03-17T06:22:02.666Z,2.01
2023-03-17T06:23:07.268Z,2.02
2023-03-17T06:24:10.435Z,2.04
2023-03-17T06:25:14.020Z,2.25
2023-03-17T06:26:17.544Z,2.31
2023-03-17T06:27:20.864Z,2.28
2023-03-17T06:28:24.395Z,2.28
2023-03-17T06:29:29.051Z,2.36
2023-03-17T06:30:34.094Z,2.38
2023-03-17T06:31:37.812Z,2.54
2023-03-17T06:32:40.828Z,2.59
2023-03-17T06:33:44.134Z,2.56
2023-03-17T06:34:47.791Z,2.56
2023-03-17T06:35:51.971Z,2.62
2023-03-17T06:36:54.904Z,2.66
2023-03-17T06:37:58.223Z,2.70
2023-03-17T06:39:01.339Z,2.81
2023-03-17T06:40:06.056Z,2.86
2023-03-17T06:41:09.398Z,2.99
2023-03-17T06:42:12.458Z,3.01
2023-03-17T06:43:15.510Z,2.99
2023-03-17T06:44:18.383Z,3.03
2023-03-17T06:45:21.259Z,3.08
2023-03-17T06:46:24.424Z,3.16
2023-03-17T06:47:27.581Z,3.23
2023-03-17T06:48:30.652Z,3.31
2023-03-17T06:49:33.767Z,3.33
2023-03-17T06:50:37.356Z,3.41
2023-03-17T06:51:40.974Z,3.48
2023-03-17T06:52:46.627Z,3.48
2023-03-17T06:53:50.094Z,3.48
2023-03-17T06:54:53.030Z,3.52
2023-03-17T06:55:56.604Z,3.59
2023-03-17T06:57:00.261Z,3.67
2023-03-17T06:58:03.516Z,3.70
2023-03-17T06:59:07.133Z,3.82
2023-03-17T07:00:12.897Z,3.90
2023-03-17T07:01:16.066Z,4.00
2023-03-17T07:02:20.114Z,3.95
2023-03-17T07:03:24.328Z,4.12
2023-03-17T07:04:27.775Z,4.17
2023-03-17T07:05:31.527Z,4.26
2023-03-17T07:06:35.295Z,4.28
2023-03-17T07:07:39.074Z,4.27
2023-03-17T07:08:42.194Z,4.31
2023-03-17T07:09:45.452Z,4.31
2023-03-17T07:10:49.232Z,4.34
2023-03-17T07:11:52.353Z,4.43
2023-03-17T07:12:55.406Z,4.53
2023-03-17T07:13:58.537Z,4.57
2023-03-17T07:15:01.859Z,4.63
2023-03-17T07:16:05.421Z,4.61
2023-03-17T07:17:13.319Z,4.65
2023-03-17T07:18:17.337Z,4.76
2023-03-17T07:19:20.258Z,4.85
2023-03-17T07:20:23.455Z,4.96
2023-03-17T07:21:26.720Z,4.91
2023-03-17T07:22:29.880Z,4.95
2023-03-17T07:23:32.847Z,5.02
2023-03-17T07:24:35.866Z,5.16
2023-03-17T07:25:39.503Z,5.16
2023-03-17T07:26:43.007Z,5.20
2023-03-17T07:27:46.287Z,5.16
2023-03-17T07:28:49.372Z,5.17
2023-03-17T07:29:53.201Z,5.32
2023-03-17T07:30:58.207Z,5.32
2023-03-17T07:32:01.730Z,5.38
2023-03-17T07:33:05.837Z,5.35
2023-03-17T07:34:08.878Z,5.38
2023-03-17T07:35:12.354Z,5.45
2023-03-17T07:36:16.038Z,5.53
2023-03-17T07:37:19.632Z,5.53
2023-03-17T07:38:23.555Z,5.47
2023-03-17T07:39:29.255Z,5.48
2023-03-17T07:40:34.864Z,5.56
2023-03-17T07:41:40.537Z,5.55
2023-03-17T07:42:43.748Z,5.59
2023-03-17T07:43:47.400Z,5.53
2023-03-17T07:44:50.263Z,5.63
2023-03-17T07:45:53.336Z,5.68
2023-03-17T07:46:56.961Z,5.72
2023-03-17T07:47:59.958Z,5.79
2023-03-17T07:49:02.800Z,5.85
2023-03-17T07:50:06.583Z,5.86
2023-03-17T07:51:19.270Z,5.92
2023-03-17T07:52:22.179Z,6.14
2023-03-17T07:53:25.517Z,6.18
2023-03-17T07:54:29.377Z,6.26
2023-03-17T07:55:45.025Z,6.24
2023-03-17T07:56:51.008Z,6.28
2023-03-17T07:57:54.074Z,6.41
2023-03-17T07:58:58.774Z,6.42
2023-03-17T08:00:01.801Z,6.54
2023-03-17T08:01:05.597Z,6.55
2023-03-17T08:02:16.046Z,6.52
2023-03-17T08:03:19.727Z,6.51
2023-03-17T08:04:22.628Z,6.61
2023-03-17T08:05:25.742Z,6.63
2023-03-17T08:06:28.756Z,6.69
2023-03-17T08:07:31.942Z,6.77
2023-03-17T08:08:35.116Z,6.85
2023-03-17T08:09:38.012Z,7.01
2023-03-17T08:10:41.082Z,7.10
2023-03-17T08:11:43.930Z,7.10
2023-03-17T08:12:52.112Z,7.18
2023-03-17T08:13:55.323Z,7.21
2023-03-17T08:14:58.244Z,7.28
2023-03-17T08:16:01.707Z,7.34
2023-03-17T08:17:05.156Z,7.38
2023-03-17T08:18:08.162Z,7.48
2023-03-17T08:19:11.437Z,7.47
2023-03-17T08:20:15.406Z,7.47
2023-03-17T08:21:18.829Z,7.35
2023-03-17T08:22:22.163Z,7.43
2023-03-17T08:23:25.823Z,7.47
2023-03-17T08:24:29.664Z,7.44
2023-03-17T08:25:32.554Z,7.48
2023-03-17T08:26:36.493Z,7.48
2023-03-17T08:27:39.730Z,7.47
2023-03-17T08:28:43.303Z,7.47
2023-03-17T08:29:46.601Z,7.52
2023-03-17T08:30:50.839Z,7.56
2023-03-17T08:31:53.895Z,7.59
2023-03-17T08:32:57.141Z,7.63
2023-03-17T08:34:00.597Z,7.67
2023-03-17T08:35:03.586Z,7.75
2023-03-17T08:36:09.650Z,7.81
2023-03-17T08:37:12.534Z,7.84
2023-03-17T08:38:15.507Z,7.82
2023-03-17T08:39:18.712Z,7.78
2023-03-17T08:40:21.677Z,7.86
2023-03-17T08:41:27.122Z,7.95
2023-03-17T08:42:30.282Z,8.03
2023-03-17T08:43:34.848Z,7.96
2023-03-17T08:44:38.070Z,7.82
2023-03-17T08:45:41.202Z,7.82
2023-03-17T08:46:44.798Z,7.86
2023-03-17T08:47:48.159Z,7.87
2023-03-17T08:48:52.595Z,7.99
2023-03-17T08:49:56.514Z,8.07
2023-03-17T08:50:59.861Z,8.21
2023-03-17T08:52:03.722Z,8.25
2023-03-17T08:53:08.650Z,8.15
2023-03-17T08:54:12.531Z,8.11
2023-03-17T08:55:16.608Z,8.21
2023-03-17T08:56:20.131Z,8.27
2023-03-17T08:57:23.028Z,8.35
2023-03-17T08:58:26.205Z,8.36
2023-03-17T08:59:29.025Z,8.45
2023-03-17T09:00:32.699Z,8.60
2023-03-17T09:01:36.422Z,8.69
2023-03-17T09:02:43.237Z,8.74
2023-03-17T09:03:46.965Z,8.81
2023-03-17T09:04:50.446Z,8.76
2023-03-17T09:05:53.739Z,8.74
2023-03-17T09:07:03.812Z,8.68
2023-03-17T09:08:07.851Z,8.81
2023-03-17T09:09:11.261Z,8.87
2023-03-17T09:10:15.084Z,8.85
2023-03-17T09:11:20.584Z,8.82
2023-03-17T09:12:23.639Z,8.73
2023-03-17T09:13:26.631Z,8.68
2023-03-17T09:14:31.752Z,8.73
2023-03-17T09:15:37.945Z,8.85
2023-03-17T09:16:41.085Z,8.89
2023-03-17T09:17:44.211Z,8.95
2023-03-17T09:18:47.314Z,9.05
2023-03-17T09:19:50.446Z,9.04
2023-03-17T09:20:53.720Z,8.98
2023-03-17T09:21:57.311Z,9.06
2023-03-17T09:23:00.573Z,9.12
2023-03-17T09:24:03.858Z,9.16
2023-03-17T09:25:07.826Z,9.12
2023-03-17T09:26:11.451Z,9.15
2023-03-17T09:27:14.486Z,9.24
2023-03-17T09:28:17.785Z,9.26
2023-03-17T09:29:20.645Z,9.42
2023-03-17T09:30:24.224Z,9.46
2023-03-17T09:31:27.499Z,9.49
2023-03-17T09:32:30.395Z,9.51
2023-03-17T09:33:33.650Z,9.57
2023-03-17T09:34:36.595Z,9.46
2023-03-17T09:35:43.225Z,9.46
2023-03-17T09:36:46.125Z,9.54
2023-03-17T09:37:49.470Z,9.61
2023-03-17T09:38:52.604Z,9.55
2023-03-17T09:39:58.147Z,9.55
2023-03-17T09:41:12.446Z,9.45
2023-03-17T09:42:35.353Z,9.30
2023-03-17T09:44:06.929Z,9.33
2023-03-17T09:45:39.559Z,9.53
2023-03-17T09:47:05.824Z,9.64
2023-03-17T09:48:27.552Z,9.69
2023-03-17T09:49:36.690Z,9.76
2023-03-17T09:51:05.428Z,9.82
2023-03-17T09:52:23.372Z,9.82
2023-03-17T09:53:28.413Z,9.84
2023-03-17T09:54:38.361Z,9.89
2023-03-17T09:55:42.293Z,10.05
2023-03-17T09:56:49.974Z,10.05
2023-03-17T09:57:56.955Z,10.03
2023-03-17T09:59:06.066Z,9.96
2023-03-17T10:00:19.264Z,10.00
2023-03-17T10:01:23.263Z,10.13
2023-03-17T10:02:32.067Z,10.14
2023-03-17T10:03:35.058Z,10.27
2023-03-17T10:04:38.611Z,10.21
2023-03-17T10:05:41.545Z,10.25
2023-03-17T10:06:47.056Z,10.23
2023-03-17T10:08:01.970Z,10.20
2023-03-17T10:09:35.660Z,10.18
2023-03-17T10:10:49.886Z,10.21
2023-03-17T10:12:14.609Z,10.23
2023-03-17T10:13:42.542Z,10.35
2023-03-17T10:14:51.807Z,10.41
2023-03-17T10:16:08.618Z,10.45
2023-03-17T10:17:23.473Z,10.47
2023-03-17T10:18:30.576Z,10.36
2023-03-17T10:19:38.053Z,10.32
2023-03-17T10:20:56.573Z,10.37
2023-03-17T10:22:16.390Z,10.39
2023-03-17T10:23:25.085Z,10.47
2023-03-17T10:24:32.758Z,10.41
2023-03-17T10:25:37.732Z,10.40
2023-03-17T10:26:48.394Z,10.44
2023-03-17T10:28:13.314Z,10.49
2023-03-17T10:29:26.513Z,10.58
2023-03-17T10:30:33.897Z,10.50
2023-03-17T10:31:38.241Z,10.49
2023-03-17T10:32:41.368Z,10.51
2023-03-17T10:33:47.173Z,10.55
2023-03-17T10:34:50.327Z,10.47
2023-03-17T10:35:53.339Z,10.48
2023-03-17T10:37:03.761Z,10.52
2023-03-17T10:38:23.283Z,10.57
2023-03-17T10:39:27.243Z,10.77
2023-03-17T10:40:32.037Z,10.76
2023-03-17T10:41:39.204Z,10.82
2023-03-17T10:42:48.373Z,10.87
2023-03-17T10:43:51.925Z,10.87
2023-03-17T10:45:07.672Z,10.88
2023-03-17T10:46:38.350Z,10.83
2023-03-17T10:47:46.279Z,10.88
2023-03-17T10:48:56.879Z,10.98
2023-03-17T10:50:15.742Z,10.91
2023-03-17T10:51:27.423Z,10.76
2023-03-17T10:52:36.215Z,10.79
2023-03-17T10:53:44.096Z,10.74
2023-03-17T10:54:54.746Z,10.72
2023-03-17T10:56:02.662Z,10.60
2023-03-17T10:57:10.834Z,10.46
2023-03-17T10:58:17.608Z,10.49
2023-03-17T11:00:37.495Z,10.77
2023-03-17T11:01:46.863Z,10.87
2023-03-17T11:02:58.258Z,11.01
2023-03-17T11:04:02.945Z,11.05
2023-03-17T11:05:23.331Z,11.09
2023-03-17T11:06:38.290Z,11.11
2023-03-17T11:07:41.918Z,11.03
2023-03-17T11:08:51.675Z,10.97
2023-03-17T11:09:59.464Z,10.93
2023-03-17T11:11:09.450Z,10.88
2023-03-17T11:12:30.818Z,10.75
2023-03-17T11:13:33.766Z,10.73
2023-03-17T11:14:36.742Z,10.73
2023-03-17T11:15:49.836Z,10.71
2023-03-17T11:16:57.166Z,10.74
2023-03-17T11:18:03.575Z,10.78
2023-03-17T11:19:15.672Z,10.77
2023-03-17T11:20:25.257Z,10.80
2023-03-17T11:21:32.581Z,10.90
2023-03-17T11:22:44.251Z,10.93
2023-03-17T11:24:01.982Z,10.91
2023-03-17T11:25:13.539Z,10.74
2023-03-17T11:26:31.504Z,10.74
2023-03-17T11:28:02.953Z,10.75
2023-03-17T11:29:22.634Z,10.79
2023-03-17T11:30:49.791Z,10.77
2023-03-17T11:32:01.214Z,10.78
2023-03-17T11:33:42.074Z,10.86
2023-03-17T11:35:08.726Z,10.90
2023-03-17T11:36:20.381Z,10.83
2023-03-17T11:37:40.002Z,10.86
2023-03-17T11:38:57.911Z,10.94
2023-03-17T11:40:45.185Z,11.08
2023-03-17T11:42:18.846Z,11.17
2023-03-17T11:43:50.610Z,11.26
2023-03-17T11:45:15.762Z,11.28
2023-03-17T11:47:01.472Z,11.25
2023-03-17T11:48:09.291Z,11.22
2023-03-17T11:49:25.613Z,11.09
2023-03-17T11:50:44.468Z,10.99
2023-03-17T11:52:03.609Z,10.92
2023-03-17T11:53:24.726Z,10.94
2023-03-17T11:54:47.320Z,11.01
2023-03-17T11:56:16.914Z,11.14
2023-03-17T11:57:34.885Z,11.00
2023-03-17T11:58:44.416Z,11.10
2023-03-17T12:00:04.172Z,11.06
2023-03-17T12:01:13.106Z,11.10
2023-03-17T12:02:41.018Z,11.24
2023-03-17T12:03:50.669Z,11.19
2023-03-17T12:04:58.801Z,11.29
2023-03-17T12:06:08.189Z,11.30
2023-03-17T12:07:22.880Z,11.31
2023-03-17T12:08:39.562Z,11.33
2023-03-17T12:09:47.916Z,11.37
2023-03-17T12:10:56.003Z,11.41
2023-03-17T12:12:01.694Z,11.41
2023-03-17T12:13:31.295Z,11.42
2023-03-17T12:14:36.426Z,11.43
2023-03-17T12:16:14.618Z,11.54
2023-03-17T12:17:25.838Z,11.42
2023-03-17T12:18:43.382Z,11.40
2023-03-17T12:20:14.962Z,11.30
2023-03-17T12:21:25.881Z,11.29
2023-03-17T12:22:35.159Z,11.20
2023-03-17T12:23:50.365Z,11.14
2023-03-17T12:25:11.593Z,11.09
2023-03-17T12:26:19.394Z,11.09
2023-03-17T12:27:42.685Z,11.05
2023-03-17T12:28:58.587Z,10.96
2023-03-17T12:30:06.750Z,11.00
2023-03-17T12:31:17.820Z,11.11
2023-03-17T12:32:23.800Z,11.27
2023-03-17T12:33:41.019Z,11.23
2023-03-17T12:34:57.092Z,11.15
2023-03-17T12:36:01.702Z,11.10
2023-03-17T12:37:04.755Z,10.99
2023-03-17T12:38:16.869Z,11.01
2023-03-17T12:39:30.595Z,11.11
2023-03-17T12:41:04.119Z,11.09
2023-03-17T12:42:42.777Z,11.10
2023-03-17T12:44:14.622Z,11.04
2023-03-17T12:45:29.804Z,11.02
2023-03-17T12:46:45.032Z,11.12
2023-03-17T12:47:53.865Z,11.12
2023-03-17T12:49:24.725Z,11.24
2023-03-17T12:50:45.942Z,11.24
2023-03-17T12:52:33.615Z,11.26
2023-03-17T12:53:45.172Z,11.20
2023-03-17T12:54:52.251Z,11.11
2023-03-17T12:56:17.412Z,11.07
2023-03-17T12:57:30.047Z,11.12
2023-03-17T12:58:38.603Z,11.16
2023-03-17T12:59:47.000Z,11.11
2023-03-17T13:00:56.483Z,11.00
2023-03-17T13:02:18.395Z,10.93
2023-03-17T13:03:26.092Z,10.86
2023-03-17T13:04:38.611Z,10.94
2023-03-17T13:05:47.300Z,10.93
2023-03-17T13:07:06.698Z,10.86
2023-03-17T13:08:17.546Z,10.89
2023-03-17T13:09:32.878Z,10.95
2023-03-17T13:10:44.497Z,10.97
2023-03-17T13:11:48.292Z,11.14
2023-03-17T13:12:51.043Z,11.07
2023-03-17T13:13:53.914Z,11.16
2023-03-17T13:14:58.942Z,11.13
2023-03-17T13:16:06.000Z,11.08
2023-03-17T13:17:18.914Z,11.17
2023-03-17T13:18:28.169Z,11.02
2023-03-17T13:19:33.478Z,11.00
2023-03-17T13:20:41.827Z,10.98
2023-03-17T13:22:05.440Z,10.92
2023-03-17T13:23:11.492Z,10.84
2023-03-17T13:24:17.473Z,10.87
2023-03-17T13:25:53.972Z,10.89
2023-03-17T13:27:02.207Z,11.00
2023-03-17T13:28:13.292Z,11.09
2023-03-17T13:29:32.925Z,11.07
2023-03-17T13:30:36.645Z,11.10
2023-03-17T13:31:39.928Z,11.05
2023-03-17T13:32:43.094Z,11.13
2023-03-17T13:33:52.357Z,11.15
2023-03-17T13:35:18.189Z,11.15
2023-03-17T13:36:43.403Z,11.13
2023-03-17T13:38:14.475Z,11.10
2023-03-17T13:39:41.602Z,11.00
2023-03-17T13:40:48.790Z,10.92
2023-03-17T13:42:01.150Z,10.92
2023-03-17T13:43:46.024Z,10.88
2023-03-17T13:45:07.667Z,10.88
2023-03-17T13:46:39.934Z,10.90
2023-03-17T13:47:46.154Z,10.85
2023-03-17T13:48:49.664Z,10.80
2023-03-17T13:49:57.306Z,10.75
2023-03-17T13:51:22.291Z,10.63
2023-03-17T13:52:33.400Z,10.55
2023-03-17T13:53:58.505Z,10.55
2023-03-17T13:55:26.211Z,10.51
2023-03-17T13:56:50.802Z,10.49
2023-03-17T13:57:59.285Z,10.52
2023-03-17T13:59:02.540Z,10.58
2023-03-17T14:00:23.554Z,10.60
2023-03-17T14:01:28.645Z,10.52
2023-03-17T14:02:36.611Z,10.48
2023-03-17T14:03:51.548Z,10.44
2023-03-17T14:05:32.344Z,10.44
2023-03-17T14:06:38.575Z,10.36
2023-03-17T14:07:50.776Z,10.33
2023-03-17T14:08:57.667Z,10.28
2023-03-17T14:10:04.424Z,10.32
2023-03-17T14:11:18.265Z,10.36
2023-03-17T14:12:31.896Z,10.28
2023-03-17T14:14:06.228Z,10.22
2023-03-17T14:15:20.326Z,10.26
2023-03-17T14:16:34.152Z,10.24
2023-03-17T14:17:47.496Z,10.25
2023-03-17T14:19:00.960Z,10.31
2023-03-17T14:20:08.698Z,10.39
2023-03-17T14:21:24.353Z,10.31
2023-03-17T14:22:27.875Z,10.28
2023-03-17T14:23:36.106Z,10.28
2023-03-17T14:24:40.246Z,10.29
2023-03-17T14:25:44.565Z,10.33
2023-03-17T14:26:48.972Z,10.27
2023-03-17T14:27:55.094Z,10.41
2023-03-17T14:29:03.657Z,10.32
2023-03-17T14:30:18.959Z,10.24
2023-03-17T14:31:27.494Z,10.18
2023-03-17T14:32:30.663Z,10.23
2023-03-17T14:33:38.450Z,10.25
2023-03-17T14:35:13.719Z,10.40
2023-03-17T14:36:16.629Z,10.22
2023-03-17T14:37:20.139Z,10.22
2023-03-17T14:38:32.868Z,10.19
2023-03-17T14:39:47.021Z,10.19
2023-03-17T14:40:51.693Z,10.24
2023-03-17T14:42:05.603Z,10.15
2023-03-17T14:43:08.684Z,10.18
2023-03-17T14:44:11.513Z,10.16